Terminal Aerodrome Forecast
Issued by NWS

Home | Current Version | Previous Version | Text Only | Print | Product List | Glossary On
Versions: 1 2 3 4 5 6 7 8 9 10 11 12 13 14 15 16 17 18
000
FTUS46 KLOX 200239 AAA
TAFSBA
TAF AMD
KSBA 200239Z 2003/2024 VRB03KT 2SM -RA BR OVC015
     FM200700 10007KT P6SM -RA OVC025
     FM201200 10012KT 6SM -RA BR OVC015
     FM201900 10015G20KT 4SM RA BR OVC008=

USA.gov is the U.S. government's official web portal to all federal, state and local government web resources and services.